createdAt,value
2023-05-18T00:02:16.215Z,102800.56
2023-05-18T00:04:44.499Z,102813.56
2023-05-18T00:07:13.156Z,102807.03
2023-05-18T00:09:42.490Z,102810.34
2023-05-18T00:12:11.037Z,102809.53
2023-05-18T00:14:39.045Z,102805.91
2023-05-18T00:17:07.016Z,102809.97
2023-05-18T00:19:34.972Z,102808.47
2023-05-18T00:22:03.717Z,102808.72
2023-05-18T00:24:31.640Z,102809.72
2023-05-18T00:27:00.949Z,102816.44
2023-05-18T00:29:28.919Z,102811.25
2023-05-18T00:31:57.007Z,102812.09
2023-05-18T00:34:25.018Z,102808.84
2023-05-18T00:36:52.994Z,102814.41
2023-05-18T00:39:21.355Z,102819.47
2023-05-18T00:41:49.289Z,102819.16
2023-05-18T00:44:18.634Z,102819.09
2023-05-18T00:46:46.717Z,102809.41
2023-05-18T00:49:15.064Z,102813.78
2023-05-18T00:51:43.384Z,102817.97
2023-05-18T00:54:11.641Z,102816.84
2023-05-18T00:56:41.965Z,102816.09
2023-05-18T00:59:12.011Z,102820.47
2023-05-18T01:01:44.021Z,102815.03
2023-05-18T01:04:14.571Z,102809.31
2023-05-18T01:06:42.775Z,102809.97
2023-05-18T01:09:13.488Z,102810.19
2023-05-18T01:11:49.775Z,102813.28
2023-05-18T01:14:20.005Z,102820.31
2023-05-18T01:16:55.795Z,102819.91
2023-05-18T01:19:58.906Z,102823.47
2023-05-18T01:22:35.005Z,102821.91
2023-05-18T01:25:06.744Z,102822.28
2023-05-18T01:27:37.659Z,102820.00
2023-05-18T01:30:06.738Z,102821.56
2023-05-18T01:32:41.173Z,102822.53
2023-05-18T01:35:09.904Z,102824.94
2023-05-18T01:37:37.841Z,102819.44
2023-05-18T01:40:07.356Z,102828.75
2023-05-18T01:42:46.653Z,102822.84
2023-05-18T01:45:19.544Z,102832.28
2023-05-18T01:47:48.339Z,102831.78
2023-05-18T01:50:18.562Z,102835.31
2023-05-18T01:52:52.217Z,102829.78
2023-05-18T01:55:20.787Z,102836.28
2023-05-18T01:57:51.149Z,102835.88
2023-05-18T02:00:20.104Z,102822.63
2023-05-18T02:02:48.718Z,102833.53
2023-05-18T02:05:16.883Z,102835.16
2023-05-18T02:07:47.409Z,102835.91
2023-05-18T02:10:15.570Z,102832.41
2023-05-18T02:12:43.546Z,102833.38
2023-05-18T02:15:13.277Z,102828.88
2023-05-18T02:17:41.551Z,102821.72
2023-05-18T02:20:11.201Z,102823.13
2023-05-18T02:22:39.226Z,102821.69
2023-05-18T02:25:08.031Z,102822.84
2023-05-18T02:27:36.765Z,102819.56
2023-05-18T02:30:05.832Z,102822.94
2023-05-18T02:32:38.810Z,102824.00
2023-05-18T02:35:07.769Z,102819.00
2023-05-18T02:37:40.279Z,102833.53
2023-05-18T02:40:10.718Z,102824.41
2023-05-18T02:42:38.667Z,102821.44
2023-05-18T02:45:07.737Z,102825.94
2023-05-18T02:47:37.140Z,102834.03
2023-05-18T02:50:05.381Z,102838.03
2023-05-18T02:52:34.143Z,102840.16
2023-05-18T02:55:02.140Z,102837.47
2023-05-18T02:57:30.098Z,102831.44
2023-05-18T02:59:58.489Z,102832.81
2023-05-18T03:02:27.851Z,102834.03
2023-05-18T03:04:57.545Z,102835.75
2023-05-18T03:07:27.718Z,102830.69
2023-05-18T03:09:55.694Z,102833.94
2023-05-18T03:12:23.627Z,102832.56
2023-05-18T03:14:51.610Z,102829.16
2023-05-18T03:17:19.555Z,102838.13
2023-05-18T03:19:47.471Z,102833.50
2023-05-18T03:22:16.820Z,102836.06
2023-05-18T03:24:44.820Z,102843.09
2023-05-18T03:27:16.702Z,102838.50
2023-05-18T03:29:44.669Z,102839.09
2023-05-18T03:32:12.625Z,102842.75
2023-05-18T03:34:40.605Z,102843.94
2023-05-18T03:37:08.525Z,102843.91
2023-05-18T03:39:37.928Z,102844.09
2023-05-18T03:42:05.936Z,102842.72
2023-05-18T03:44:33.887Z,102847.09
2023-05-18T03:47:01.850Z,102846.47
2023-05-18T03:49:30.927Z,102850.97
2023-05-18T03:51:58.854Z,102852.53
2023-05-18T03:54:26.859Z,102848.66
2023-05-18T03:56:56.399Z,102854.81
2023-05-18T03:59:24.343Z,102856.47
2023-05-18T04:01:53.929Z,102859.44
2023-05-18T04:04:23.620Z,102855.47
2023-05-18T04:06:52.594Z,102859.69
2023-05-18T04:09:21.886Z,102867.53
2023-05-18T04:11:49.843Z,102858.72
2023-05-18T04:14:20.934Z,102861.66
2023-05-18T04:16:49.022Z,102862.34
2023-05-18T04:19:17.059Z,102871.53
2023-05-18T04:21:47.384Z,102872.69
2023-05-18T04:24:16.556Z,102874.97
2023-05-18T04:26:44.562Z,102870.34
2023-05-18T04:29:13.508Z,102881.59
2023-05-18T04:31:44.959Z,102873.38
2023-05-18T04:34:13.820Z,102884.38
2023-05-18T04:36:42.823Z,102884.66
2023-05-18T04:39:11.563Z,102895.56
2023-05-18T04:41:42.404Z,102890.69
2023-05-18T04:44:10.657Z,102891.50
2023-05-18T04:46:40.801Z,102893.84
2023-05-18T04:49:11.780Z,102887.41
2023-05-18T04:51:39.851Z,102893.59
2023-05-18T04:54:09.112Z,102892.66
2023-05-18T04:56:37.131Z,102892.03
2023-05-18T04:59:05.128Z,102899.44
2023-05-18T05:01:33.089Z,102904.25
2023-05-18T05:04:01.255Z,102904.25
2023-05-18T05:06:31.246Z,102905.38
2023-05-18T05:08:59.272Z,102907.69
2023-05-18T05:11:27.223Z,102908.97
2023-05-18T05:13:55.206Z,102910.09
2023-05-18T05:16:23.185Z,102913.94
2023-05-18T05:18:51.294Z,102918.59
2023-05-18T05:21:19.332Z,102919.63
2023-05-18T05:23:48.634Z,102928.06
2023-05-18T05:26:16.619Z,102920.56
2023-05-18T05:28:44.580Z,102921.66
2023-05-18T05:31:12.751Z,102925.88
2023-05-18T05:33:40.768Z,102920.13
2023-05-18T05:36:09.700Z,102923.72
2023-05-18T05:38:38.490Z,102924.59
2023-05-18T05:41:07.836Z,102929.91
2023-05-18T05:43:35.880Z,102923.47
2023-05-18T05:46:04.224Z,102923.28
2023-05-18T05:48:32.195Z,102927.16
2023-05-18T05:51:00.156Z,102927.97
2023-05-18T05:53:29.726Z,102933.38
2023-05-18T05:55:57.756Z,102928.47
2023-05-18T05:58:27.089Z,102935.69
2023-05-18T06:00:55.040Z,102927.47
2023-05-18T06:03:23.096Z,102932.78
2023-05-18T06:05:51.123Z,102935.00
2023-05-18T06:08:19.110Z,102945.66
2023-05-18T06:10:47.071Z,102944.84
2023-05-18T06:13:15.017Z,102937.69
2023-05-18T06:15:44.369Z,102947.25
2023-05-18T06:18:13.567Z,102955.59
2023-05-18T06:20:41.850Z,102963.66
2023-05-18T06:23:09.764Z,102957.38
2023-05-18T06:25:38.168Z,102960.84
2023-05-18T06:28:06.425Z,102952.03
2023-05-18T06:30:34.386Z,102951.91
2023-05-18T06:33:04.480Z,102953.63
2023-05-18T06:35:32.608Z,102954.59
2023-05-18T06:38:00.692Z,102955.38
2023-05-18T06:40:28.755Z,102964.34
2023-05-18T06:42:56.787Z,102966.81
2023-05-18T06:45:24.750Z,102970.22
2023-05-18T06:47:52.764Z,102966.03
2023-05-18T06:50:22.164Z,102971.16
2023-05-18T06:52:50.141Z,102976.66
2023-05-18T06:55:18.224Z,102974.16
2023-05-18T06:57:46.286Z,102970.28
2023-05-18T07:00:14.868Z,102974.25
2023-05-18T07:02:44.389Z,102970.41
2023-05-18T07:05:12.697Z,102976.53
2023-05-18T07:07:42.072Z,102971.25
2023-05-18T07:10:10.699Z,102968.94
2023-05-18T07:12:38.896Z,102975.66
2023-05-18T07:15:08.162Z,102969.75
2023-05-18T07:17:38.995Z,102972.34
2023-05-18T07:20:08.842Z,102972.88
2023-05-18T07:22:36.804Z,102967.56
2023-05-18T07:25:06.816Z,102962.50
2023-05-18T07:27:34.754Z,102972.47
2023-05-18T07:30:02.763Z,102976.13
2023-05-18T07:32:30.806Z,102973.91
2023-05-18T07:34:59.234Z,102967.88
2023-05-18T07:37:27.199Z,102968.16
2023-05-18T07:39:57.039Z,102971.22
2023-05-18T07:42:26.381Z,102965.41
2023-05-18T07:44:54.341Z,102975.22
2023-05-18T07:47:22.458Z,102976.06
2023-05-18T07:49:50.623Z,102976.84
2023-05-18T07:52:18.568Z,102975.53
2023-05-18T07:54:46.646Z,102971.59
2023-05-18T07:57:14.759Z,102973.16
2023-05-18T07:59:44.105Z,102979.41
2023-05-18T08:02:12.292Z,102978.53
2023-05-18T08:04:40.804Z,102968.88
2023-05-18T08:07:09.119Z,102971.66
2023-05-18T08:09:37.408Z,102986.53
2023-05-18T08:12:06.319Z,102976.53
2023-05-18T08:14:34.281Z,102981.59
2023-05-18T08:17:04.695Z,102969.53
2023-05-18T08:19:32.782Z,102975.75
2023-05-18T08:22:01.568Z,102969.59
2023-05-18T08:24:38.794Z,102971.00
2023-05-18T08:27:08.484Z,102972.94
2023-05-18T08:29:36.467Z,102975.88
2023-05-18T08:32:07.184Z,102967.06
2023-05-18T08:34:35.288Z,102973.06
2023-05-18T08:37:03.840Z,102971.25
2023-05-18T08:39:32.722Z,102971.78
2023-05-18T08:42:03.757Z,102969.53
2023-05-18T08:44:36.503Z,102968.34
2023-05-18T08:47:10.074Z,102976.25
2023-05-18T08:49:38.670Z,102980.94
2023-05-18T08:52:07.788Z,102970.59
2023-05-18T08:54:37.986Z,102970.06
2023-05-18T08:57:09.585Z,102969.47
2023-05-18T08:59:40.492Z,102968.91
2023-05-18T09:02:09.982Z,102974.56
2023-05-18T09:04:40.066Z,102967.94
2023-05-18T09:07:09.076Z,102970.41
2023-05-18T09:09:37.063Z,102966.28
2023-05-18T09:12:05.974Z,102960.97
2023-05-18T09:14:34.003Z,102969.69
2023-05-18T09:17:02.042Z,102968.91
2023-05-18T09:19:31.434Z,102961.59
2023-05-18T09:21:59.351Z,102960.25
2023-05-18T09:24:28.071Z,102959.88
2023-05-18T09:26:56.138Z,102961.94
2023-05-18T09:29:25.031Z,102953.63
2023-05-18T09:31:54.301Z,102954.47
2023-05-18T09:34:22.288Z,102950.09
2023-05-18T09:36:53.252Z,102946.50
2023-05-18T09:39:21.366Z,102949.28
2023-05-18T09:41:56.412Z,102951.41
2023-05-18T09:44:32.450Z,102951.09
2023-05-18T09:47:00.442Z,102952.38
2023-05-18T09:49:30.924Z,102956.25
2023-05-18T09:52:01.026Z,102947.31
2023-05-18T09:54:29.222Z,102942.16
2023-05-18T09:57:09.384Z,102948.16
2023-05-18T09:59:38.696Z,102944.00
2023-05-18T10:02:08.793Z,102959.44
2023-05-18T10:04:37.800Z,102949.72
2023-05-18T10:07:13.085Z,102946.81
2023-05-18T10:09:41.859Z,102945.34
2023-05-18T10:12:13.648Z,102941.03
2023-05-18T10:14:42.616Z,102942.97
2023-05-18T10:17:15.712Z,102939.50
2023-05-18T10:19:44.298Z,102933.91
2023-05-18T10:22:15.168Z,102931.31
2023-05-18T10:24:44.318Z,102926.06
2023-05-18T10:27:12.880Z,102921.22
2023-05-18T10:29:41.497Z,102919.63
2023-05-18T10:32:13.750Z,102922.66
2023-05-18T10:34:41.966Z,102919.53
2023-05-18T10:37:11.940Z,102925.25
2023-05-18T10:39:45.660Z,102919.84
2023-05-18T10:42:16.145Z,102921.91
2023-05-18T10:44:44.551Z,102917.97
2023-05-18T10:47:13.281Z,102913.34
2023-05-18T10:49:41.603Z,102917.59
2023-05-18T10:52:11.203Z,102923.41
2023-05-18T10:54:41.058Z,102925.34
2023-05-18T10:57:12.139Z,102922.34
2023-05-18T10:59:42.863Z,102915.75
2023-05-18T11:02:12.406Z,102922.16
2023-05-18T11:04:41.235Z,102917.97
2023-05-18T11:07:12.780Z,102920.19
2023-05-18T11:09:43.965Z,102931.63
2023-05-18T11:12:16.161Z,102917.13
2023-05-18T11:14:51.899Z,102916.34
2023-05-18T11:17:21.532Z,102916.75
2023-05-18T11:20:15.574Z,102919.59
2023-05-18T11:22:48.032Z,102923.66
2023-05-18T11:25:39.555Z,102914.81
2023-05-18T11:28:08.509Z,102912.75
2023-05-18T11:30:52.704Z,102919.66
2023-05-18T11:33:26.037Z,102908.22
2023-05-18T11:36:02.937Z,102905.22
2023-05-18T11:38:51.795Z,102902.97
2023-05-18T11:41:32.287Z,102904.25
2023-05-18T11:44:16.078Z,102904.31
2023-05-18T11:46:53.528Z,102903.91
2023-05-18T11:49:24.426Z,102905.91
2023-05-18T11:52:02.570Z,102900.66
2023-05-18T11:54:35.241Z,102905.03
2023-05-18T11:57:04.803Z,102895.44
2023-05-18T11:59:34.026Z,102890.72
2023-05-18T12:02:03.880Z,102893.94
2023-05-18T12:04:33.471Z,102890.75
2023-05-18T12:07:05.901Z,102893.88
2023-05-18T12:09:34.120Z,102884.88
2023-05-18T12:12:04.137Z,102891.31
2023-05-18T12:14:32.518Z,102884.72
2023-05-18T12:17:01.323Z,102882.69
2023-05-18T12:19:29.450Z,102880.41
2023-05-18T12:21:58.989Z,102881.94
2023-05-18T12:24:27.071Z,102880.53
2023-05-18T12:26:55.006Z,102882.66
2023-05-18T12:29:24.340Z,102886.44
2023-05-18T12:31:52.315Z,102891.56
2023-05-18T12:34:20.313Z,102883.19
2023-05-18T12:36:54.969Z,102884.16
2023-05-18T12:39:22.977Z,102880.31
2023-05-18T12:41:51.151Z,102878.13
2023-05-18T12:44:19.357Z,102874.06
2023-05-18T12:46:49.469Z,102876.50
2023-05-18T12:49:19.548Z,102879.78
2023-05-18T12:51:47.537Z,102862.97
2023-05-18T12:54:15.689Z,102868.34
2023-05-18T12:57:01.856Z,102871.13
2023-05-18T12:59:30.440Z,102856.69
2023-05-18T13:02:00.158Z,102850.53
2023-05-18T13:04:35.248Z,102859.53
2023-05-18T13:07:03.273Z,102853.19
2023-05-18T13:09:31.320Z,102845.69
2023-05-18T13:14:39.254Z,102847.53
2023-05-18T13:17:10.890Z,102851.22
2023-05-18T13:19:38.939Z,102836.59
2023-05-18T13:22:06.911Z,102837.22
2023-05-18T13:24:34.878Z,102838.44
2023-05-18T13:27:02.856Z,102833.88
2023-05-18T13:29:31.031Z,102822.06
2023-05-18T13:31:59.078Z,102826.28
2023-05-18T13:34:28.670Z,102830.41
2023-05-18T13:36:57.191Z,102824.75
2023-05-18T13:39:25.150Z,102819.47
2023-05-18T13:41:53.123Z,102827.91
2023-05-18T13:44:21.085Z,102815.59
2023-05-18T13:46:49.043Z,102807.25
2023-05-18T13:49:16.991Z,102820.09
2023-05-18T13:51:46.288Z,102818.78
2023-05-18T13:54:14.215Z,102813.03
2023-05-18T13:56:42.225Z,102815.31
2023-05-18T13:59:10.164Z,102803.75
2023-05-18T14:01:38.200Z,102813.44
2023-05-18T14:04:06.560Z,102807.25
2023-05-18T14:06:34.531Z,102810.03
2023-05-18T14:09:03.870Z,102795.03
2023-05-18T14:11:34.584Z,102791.81
2023-05-18T14:14:02.615Z,102804.56
2023-05-18T14:16:30.825Z,102804.88
2023-05-18T14:18:58.845Z,102795.50
2023-05-18T14:21:26.821Z,102791.53
2023-05-18T14:23:54.814Z,102792.59
2023-05-18T14:26:24.325Z,102794.19
2023-05-18T14:28:52.242Z,102783.97
2023-05-18T14:31:20.193Z,102791.75
2023-05-18T14:33:48.395Z,102781.06
2023-05-18T14:36:16.388Z,102784.00
2023-05-18T14:38:46.222Z,102776.84
2023-05-18T14:41:14.216Z,102780.38
2023-05-18T14:43:43.548Z,102770.38
2023-05-18T14:46:11.497Z,102773.28
2023-05-18T14:48:39.467Z,102780.56
2023-05-18T14:51:07.476Z,102777.81
2023-05-18T14:53:35.427Z,102771.47
2023-05-18T14:56:06.210Z,102767.31
2023-05-18T14:58:34.198Z,102771.78
2023-05-18T15:01:04.043Z,102767.25
2023-05-18T15:03:32.128Z,102777.91
2023-05-18T15:06:00.170Z,102774.22
2023-05-18T15:08:28.095Z,102772.78
2023-05-18T15:10:56.079Z,102767.38
2023-05-18T15:13:24.053Z,102772.38
2023-05-18T15:15:52.070Z,102766.38
2023-05-18T15:18:21.418Z,102761.44
2023-05-18T15:20:49.389Z,102768.41
2023-05-18T15:23:17.376Z,102752.41
2023-05-18T15:25:45.509Z,102755.72
2023-05-18T15:28:13.842Z,102757.34
2023-05-18T15:30:41.789Z,102755.94
2023-05-18T15:33:09.871Z,102743.47
2023-05-18T15:35:39.722Z,102743.25
2023-05-18T15:38:07.716Z,102742.28
2023-05-18T15:40:35.681Z,102746.88
2023-05-18T15:43:03.753Z,102735.06
2023-05-18T15:45:31.778Z,102731.84
2023-05-18T15:47:59.863Z,102742.94
2023-05-18T15:50:27.849Z,102733.56
2023-05-18T15:52:57.236Z,102727.16
2023-05-18T15:55:25.216Z,102725.97
2023-05-18T15:57:53.146Z,102730.72
2023-05-18T16:00:22.317Z,102723.25
2023-05-18T16:02:50.360Z,102722.03
2023-05-18T16:05:18.388Z,102717.56
2023-05-18T16:07:46.334Z,102727.09
2023-05-18T16:10:15.676Z,102722.50
2023-05-18T16:12:43.609Z,102719.28
2023-05-18T16:15:12.107Z,102720.22
2023-05-18T16:17:40.126Z,102715.06
2023-05-18T16:20:09.207Z,102713.47
2023-05-18T16:22:37.183Z,102723.06
2023-05-18T16:25:05.339Z,102718.44
2023-05-18T16:27:34.680Z,102712.34
2023-05-18T16:30:02.604Z,102706.50
2023-05-18T16:32:31.651Z,102721.28
2023-05-18T16:34:59.636Z,102710.00
2023-05-18T16:37:27.599Z,102702.69
2023-05-18T16:39:55.559Z,102702.09
2023-05-18T16:42:23.580Z,102709.44
2023-05-18T16:44:52.905Z,102709.00
2023-05-18T16:47:20.862Z,102711.31
2023-05-18T16:49:48.900Z,102713.50
2023-05-18T16:52:18.410Z,102717.91
2023-05-18T16:54:46.332Z,102716.41
2023-05-18T16:57:14.347Z,102717.88
2023-05-18T16:59:42.555Z,102711.78
2023-05-18T17:02:13.445Z,102709.19
2023-05-18T17:04:42.936Z,102712.44
2023-05-18T17:07:11.472Z,102705.13
2023-05-18T17:09:41.719Z,102703.88
2023-05-18T17:12:10.374Z,102707.69
2023-05-18T17:14:38.915Z,102715.06
2023-05-18T17:17:07.366Z,102707.22
2023-05-18T17:19:36.807Z,102715.16
2023-05-18T17:22:04.805Z,102710.75
2023-05-18T17:24:32.911Z,102713.34
2023-05-18T17:27:00.876Z,102710.88
2023-05-18T17:29:30.599Z,102717.34
2023-05-18T17:31:58.587Z,102712.28
2023-05-18T17:34:26.980Z,102718.31
2023-05-18T17:36:56.303Z,102707.19
2023-05-18T17:39:24.329Z,102708.34
2023-05-18T17:41:54.181Z,102712.31
2023-05-18T17:44:22.410Z,102717.09
2023-05-18T17:46:50.968Z,102712.06
2023-05-18T17:49:19.103Z,102714.22
2023-05-18T17:51:47.058Z,102713.16
2023-05-18T17:54:16.520Z,102718.44
2023-05-18T17:56:44.460Z,102713.81
2023-05-18T17:59:12.997Z,102716.34
2023-05-18T18:01:53.958Z,102706.97
2023-05-18T18:04:22.436Z,102717.06
2023-05-18T18:06:54.265Z,102708.34
2023-05-18T18:09:23.746Z,102711.09
2023-05-18T18:11:51.684Z,102713.00
2023-05-18T18:14:19.641Z,102714.66
2023-05-18T18:16:47.761Z,102713.53
2023-05-18T18:19:16.152Z,102722.53
2023-05-18T18:21:44.099Z,102724.91
2023-05-18T18:24:14.020Z,102720.53
2023-05-18T18:26:43.401Z,102722.88
2023-05-18T18:29:11.466Z,102719.03
2023-05-18T18:31:39.509Z,102726.28
2023-05-18T18:34:07.462Z,102719.31
2023-05-18T18:36:35.675Z,102725.03
2023-05-18T18:39:04.126Z,102723.41
2023-05-18T18:41:32.777Z,102732.19
2023-05-18T18:44:02.064Z,102718.31
2023-05-18T18:46:30.118Z,102731.06
2023-05-18T18:48:58.107Z,102732.53
2023-05-18T18:51:26.185Z,102729.84
2023-05-18T18:53:54.112Z,102737.09
2023-05-18T18:56:27.438Z,102738.34
2023-05-18T18:58:55.409Z,102744.28
2023-05-18T19:01:24.809Z,102738.81
2023-05-18T19:03:53.249Z,102742.72
2023-05-18T19:06:24.508Z,102744.09
2023-05-18T19:08:53.371Z,102751.09
2023-05-18T19:11:23.427Z,102751.84
2023-05-18T19:13:51.344Z,102753.81
2023-05-18T19:16:19.305Z,102766.59
2023-05-18T19:18:48.704Z,102762.31
2023-05-18T19:21:16.688Z,102760.00
2023-05-18T19:23:44.684Z,102757.69
2023-05-18T19:26:12.680Z,102765.78
2023-05-18T19:28:40.713Z,102765.53
2023-05-18T19:31:10.309Z,102764.19
2023-05-18T19:33:38.376Z,102766.63
2023-05-18T19:36:07.873Z,102768.34
2023-05-18T19:38:35.792Z,102774.13
2023-05-18T19:41:03.714Z,102769.66
2023-05-18T19:43:31.675Z,102775.88
2023-05-18T19:45:59.875Z,102780.03
2023-05-18T19:48:27.830Z,102785.81
2023-05-18T19:50:55.769Z,102784.44
2023-05-18T19:53:25.298Z,102788.75
2023-05-18T19:55:53.212Z,102791.69
2023-05-18T19:58:21.788Z,102786.16
2023-05-18T20:00:49.751Z,102793.34
2023-05-18T20:03:17.764Z,102790.78
2023-05-18T20:05:46.260Z,102798.13
2023-05-18T20:08:14.724Z,102793.91
2023-05-18T20:10:44.816Z,102797.69
2023-05-18T20:13:12.765Z,102800.75
2023-05-18T20:15:40.726Z,102805.69
2023-05-18T20:18:08.745Z,102811.63
2023-05-18T20:20:36.729Z,102818.13
2023-05-18T20:23:06.778Z,102816.41
2023-05-18T20:25:36.450Z,102805.91
2023-05-18T20:28:07.845Z,102813.88
2023-05-18T20:30:35.878Z,102811.88
2023-05-18T20:33:04.716Z,102816.25
2023-05-18T20:35:33.756Z,102823.22
2023-05-18T20:38:04.416Z,102817.47
2023-05-18T20:40:32.698Z,102820.88
2023-05-18T20:43:01.051Z,102825.16
2023-05-18T20:45:31.301Z,102827.41
2023-05-18T20:48:00.233Z,102836.53
2023-05-18T20:50:28.536Z,102830.81
2023-05-18T20:52:56.661Z,102838.19
2023-05-18T20:55:24.697Z,102836.63
2023-05-18T20:57:53.190Z,102831.56
2023-05-18T21:00:21.667Z,102832.88
2023-05-18T21:02:51.217Z,102832.69
2023-05-18T21:05:20.033Z,102827.78
2023-05-18T21:07:48.883Z,102829.91
2023-05-18T21:10:17.326Z,102832.94
2023-05-18T21:12:45.352Z,102834.25
2023-05-18T21:15:13.357Z,102834.53
2023-05-18T21:17:41.284Z,102837.75
2023-05-18T21:20:12.103Z,102830.19
2023-05-18T21:22:40.062Z,102836.00
2023-05-18T21:25:08.744Z,102841.63
2023-05-18T21:27:37.331Z,102825.66
2023-05-18T21:30:06.112Z,102836.66
2023-05-18T21:32:34.192Z,102827.84
2023-05-18T21:35:02.251Z,102827.38
2023-05-18T21:37:31.921Z,102826.75
2023-05-18T21:39:59.854Z,102825.66
2023-05-18T21:42:27.777Z,102824.34
2023-05-18T21:44:55.786Z,102834.50
2023-05-18T21:47:23.753Z,102833.41
2023-05-18T21:49:51.786Z,102829.56
2023-05-18T21:52:19.815Z,102832.16
2023-05-18T21:54:49.122Z,102826.09
2023-05-18T21:57:17.076Z,102830.84
2023-05-18T21:59:45.019Z,102836.03
2023-05-18T22:02:12.996Z,102835.81
2023-05-18T22:04:41.234Z,102837.53
2023-05-18T22:07:09.983Z,102839.03
2023-05-18T22:09:37.908Z,102838.84
2023-05-18T22:12:07.675Z,102840.78
2023-05-18T22:14:35.946Z,102832.13
2023-05-18T22:17:05.184Z,102826.97
2023-05-18T22:19:33.296Z,102825.66
2023-05-18T22:22:01.680Z,102829.97
2023-05-18T22:24:29.674Z,102833.44
2023-05-18T22:26:57.620Z,102835.56
2023-05-18T22:29:27.056Z,102833.63
2023-05-18T22:31:55.092Z,102834.50
2023-05-18T22:34:23.044Z,102837.28
2023-05-18T22:36:50.989Z,102829.97
2023-05-18T22:39:19.141Z,102828.44
2023-05-18T22:41:47.101Z,102825.63
2023-05-18T22:44:15.042Z,102824.75
2023-05-18T22:46:44.554Z,102825.84
2023-05-18T22:49:12.649Z,102827.47
2023-05-18T22:51:40.858Z,102827.47
2023-05-18T22:54:08.772Z,102835.41
2023-05-18T22:56:36.776Z,102831.16
2023-05-18T22:59:07.003Z,102836.00
2023-05-18T23:01:37.765Z,102831.84
2023-05-18T23:04:07.449Z,102832.81
2023-05-18T23:06:35.510Z,102828.22
2023-05-18T23:09:03.437Z,102829.53
2023-05-18T23:11:35.006Z,102831.84
2023-05-18T23:14:03.196Z,102828.59
2023-05-18T23:16:31.587Z,102837.69
2023-05-18T23:19:01.751Z,102818.34
2023-05-18T23:21:31.862Z,102832.19
2023-05-18T23:23:59.901Z,102827.50
2023-05-18T23:26:27.875Z,102828.09
2023-05-18T23:28:55.809Z,102830.16
2023-05-18T23:31:23.760Z,102831.41
2023-05-18T23:33:52.357Z,102820.50
2023-05-18T23:36:21.894Z,102816.53
2023-05-18T23:38:51.883Z,102814.13
2023-05-18T23:41:20.605Z,102816.84
2023-05-18T23:43:49.122Z,102822.50
2023-05-18T23:46:17.928Z,102826.94
2023-05-18T23:48:46.514Z,102829.97
2023-05-18T23:51:17.126Z,102825.19
2023-05-18T23:53:46.330Z,102828.59
2023-05-18T23:56:16.204Z,102826.13
2023-05-18T23:58:45.788Z,102828.97
